createdAt,value
2022-10-08T00:01:17.536Z,8.12
2022-10-08T00:03:48.126Z,8.10
2022-10-08T00:06:28.339Z,8.06
2022-10-08T00:09:02.493Z,8.05
2022-10-08T00:11:39.289Z,8.07
2022-10-08T00:14:09.384Z,8.04
2022-10-08T00:16:41.665Z,7.98
2022-10-08T00:19:14.918Z,7.96
2022-10-08T00:21:44.804Z,7.94
2022-10-08T00:24:17.889Z,7.89
2022-10-08T00:26:45.366Z,7.87
2022-10-08T00:29:17.267Z,7.85
2022-10-08T00:31:47.752Z,7.86
2022-10-08T00:34:23.599Z,7.81
2022-10-08T00:36:53.417Z,7.84
2022-10-08T00:39:23.163Z,7.80
2022-10-08T00:41:53.647Z,7.79
2022-10-08T00:44:51.744Z,7.80
2022-10-08T00:47:33.409Z,7.75
2022-10-08T00:50:23.803Z,7.69
2022-10-08T00:53:02.872Z,7.74
2022-10-08T00:55:30.573Z,7.74
2022-10-08T00:58:03.137Z,7.72
2022-10-08T01:00:31.742Z,7.69
2022-10-08T01:02:58.950Z,7.68
2022-10-08T01:05:45.831Z,7.60
2022-10-08T01:08:34.150Z,7.51
2022-10-08T01:11:29.960Z,7.46
2022-10-08T01:14:16.308Z,7.35
2022-10-08T01:17:13.931Z,7.26
2022-10-08T01:20:21.313Z,7.25
2022-10-08T01:23:19.982Z,7.17
2022-10-08T01:26:30.612Z,7.06
2022-10-08T01:29:09.307Z,7.02
2022-10-08T01:31:45.967Z,6.98
2022-10-08T01:34:34.746Z,6.93
2022-10-08T01:37:03.341Z,6.90
2022-10-08T01:39:35.012Z,6.87
2022-10-08T01:42:04.279Z,6.83
2022-10-08T01:44:41.149Z,6.80
2022-10-08T01:47:14.327Z,6.77
2022-10-08T01:49:50.001Z,6.73
2022-10-08T01:52:25.450Z,6.72
2022-10-08T01:54:59.002Z,6.71
2022-10-08T01:57:28.775Z,6.70
2022-10-08T02:00:02.253Z,6.69
2022-10-08T02:02:29.385Z,6.69
2022-10-08T02:04:57.146Z,6.68
2022-10-08T02:07:27.838Z,6.67
2022-10-08T02:10:02.877Z,6.65
2022-10-08T02:12:30.008Z,6.59
2022-10-08T02:14:59.040Z,6.61
2022-10-08T02:18:00.090Z,6.59
2022-10-08T02:20:35.419Z,6.57
2022-10-08T02:23:25.030Z,6.53
2022-10-08T02:26:04.606Z,6.51
2022-10-08T02:28:43.574Z,6.49
2022-10-08T02:31:26.427Z,6.47
2022-10-08T02:34:17.037Z,6.40
2022-10-08T02:36:53.397Z,6.39
2022-10-08T02:39:21.747Z,6.37
2022-10-08T02:41:58.031Z,6.35
2022-10-08T02:44:39.393Z,6.29
2022-10-08T02:47:12.798Z,6.26
2022-10-08T02:50:02.881Z,6.24
2022-10-08T02:52:37.046Z,6.21
2022-10-08T02:55:19.391Z,6.18
2022-10-08T02:57:58.696Z,6.15
2022-10-08T03:00:35.434Z,6.14
2022-10-08T03:03:12.957Z,6.12
2022-10-08T03:05:42.949Z,6.10
2022-10-08T03:08:14.979Z,6.07
2022-10-08T03:10:43.999Z,6.08
2022-10-08T03:13:13.305Z,6.07
2022-10-08T03:15:41.649Z,6.05
2022-10-08T03:18:12.149Z,6.04
2022-10-08T03:20:45.678Z,6.02
2022-10-08T03:23:17.810Z,6.02
2022-10-08T03:25:45.120Z,5.99
2022-10-08T03:28:12.308Z,5.98
2022-10-08T03:30:39.410Z,5.97
2022-10-08T03:33:06.441Z,5.96
2022-10-08T03:35:33.288Z,5.92
2022-10-08T03:38:00.096Z,5.91
2022-10-08T03:40:26.865Z,5.91
2022-10-08T03:42:53.631Z,5.88
2022-10-08T03:45:20.618Z,5.86
2022-10-08T03:47:51.981Z,5.82
2022-10-08T03:50:22.336Z,5.82
2022-10-08T03:52:49.754Z,5.78
2022-10-08T03:55:16.908Z,5.76
2022-10-08T03:57:43.873Z,5.73
2022-10-08T04:00:11.550Z,5.71
2022-10-08T04:02:38.784Z,5.69
2022-10-08T04:05:06.395Z,5.65
2022-10-08T04:07:33.179Z,5.60
2022-10-08T04:10:00.131Z,5.60
2022-10-08T04:12:26.912Z,5.60
2022-10-08T04:14:53.736Z,5.59
2022-10-08T04:17:20.482Z,5.56
2022-10-08T04:19:47.245Z,5.54
2022-10-08T04:22:14.017Z,5.53
2022-10-08T04:24:41.163Z,5.53
2022-10-08T04:27:07.957Z,5.54
2022-10-08T04:29:34.753Z,5.53
2022-10-08T04:32:01.629Z,5.55
2022-10-08T04:34:29.209Z,5.55
2022-10-08T04:36:56.406Z,5.58
2022-10-08T04:39:23.555Z,5.60
2022-10-08T04:41:50.391Z,5.64
2022-10-08T04:44:17.525Z,5.73
2022-10-08T04:46:44.339Z,5.78
2022-10-08T04:49:12.259Z,5.84
2022-10-08T04:51:39.051Z,5.86
2022-10-08T04:54:05.893Z,5.91
2022-10-08T04:56:35.661Z,5.93
2022-10-08T04:59:02.888Z,5.95
2022-10-08T05:01:30.661Z,5.95
2022-10-08T05:03:59.289Z,5.94
2022-10-08T05:06:29.602Z,5.93
2022-10-08T05:08:59.902Z,5.92
2022-10-08T05:11:27.797Z,5.90
2022-10-08T05:13:56.705Z,5.89
2022-10-08T05:16:25.098Z,5.91
2022-10-08T05:18:52.334Z,5.92
2022-10-08T05:21:24.091Z,5.93
2022-10-08T05:23:58.635Z,5.95
2022-10-08T05:26:56.258Z,5.94
2022-10-08T05:29:16.418Z,5.95
2022-10-08T05:31:44.227Z,5.93
2022-10-08T05:34:14.044Z,5.90
2022-10-08T05:36:41.737Z,5.90
2022-10-08T05:39:08.625Z,5.86
2022-10-08T05:41:37.748Z,5.84
2022-10-08T05:44:07.517Z,5.79
2022-10-08T05:46:36.744Z,5.80
2022-10-08T05:49:06.532Z,5.79
2022-10-08T05:51:33.479Z,5.79
2022-10-08T05:54:01.557Z,5.77
2022-10-08T05:56:29.150Z,5.74
2022-10-08T05:58:56.317Z,5.72
2022-10-08T06:01:28.377Z,5.69
2022-10-08T06:04:08.048Z,5.66
2022-10-08T06:06:38.392Z,5.63
2022-10-08T06:09:06.926Z,5.60
2022-10-08T06:11:36.416Z,5.56
2022-10-08T06:14:06.330Z,5.54
2022-10-08T06:16:34.757Z,5.50
2022-10-08T06:19:03.348Z,5.48
2022-10-08T06:21:31.337Z,5.46
2022-10-08T06:24:05.475Z,5.43
2022-10-08T06:26:37.307Z,5.42
2022-10-08T06:29:10.860Z,5.42
2022-10-08T06:31:38.166Z,5.44
2022-10-08T06:34:05.653Z,5.50
2022-10-08T06:36:34.502Z,5.56
2022-10-08T06:39:07.249Z,5.58
2022-10-08T06:41:35.314Z,5.60
2022-10-08T06:44:10.801Z,5.62
2022-10-08T06:46:37.635Z,5.66
2022-10-08T06:49:06.289Z,5.70
2022-10-08T06:51:34.229Z,5.73
2022-10-08T06:54:07.355Z,5.74
2022-10-08T06:56:36.557Z,5.80
2022-10-08T06:59:05.060Z,5.83
2022-10-08T07:01:34.141Z,5.90
2022-10-08T07:04:03.365Z,6.04
2022-10-08T07:06:30.610Z,6.18
2022-10-08T07:09:00.901Z,6.20
2022-10-08T07:11:29.078Z,6.24
2022-10-08T07:13:56.796Z,6.30
2022-10-08T07:16:26.865Z,6.30
2022-10-08T07:18:57.932Z,6.32
2022-10-08T07:21:25.631Z,6.42
2022-10-08T07:23:53.093Z,6.65
2022-10-08T07:26:33.463Z,6.98
2022-10-08T07:29:08.487Z,7.32
2022-10-08T07:31:37.004Z,7.76
2022-10-08T07:34:11.600Z,8.01
2022-10-08T07:36:39.850Z,8.34
2022-10-08T07:39:12.823Z,8.66
2022-10-08T07:41:40.030Z,9.01
2022-10-08T07:44:07.530Z,9.26
2022-10-08T07:46:37.240Z,9.53
2022-10-08T07:49:05.069Z,9.84
2022-10-08T07:51:34.965Z,10.06
2022-10-08T07:54:04.536Z,10.26
2022-10-08T07:56:32.196Z,10.42
2022-10-08T07:59:01.117Z,10.40
2022-10-08T08:01:30.202Z,10.50
2022-10-08T08:04:02.266Z,10.59
2022-10-08T08:06:31.895Z,10.55
2022-10-08T08:09:01.465Z,10.55
2022-10-08T08:11:29.189Z,10.64
2022-10-08T08:13:59.108Z,10.64
2022-10-08T08:16:29.353Z,10.65
2022-10-08T08:19:00.162Z,10.67
2022-10-08T08:21:34.591Z,10.70
2022-10-08T08:24:13.786Z,10.67
2022-10-08T08:26:43.009Z,10.72
2022-10-08T08:29:18.822Z,10.77
2022-10-08T08:31:48.661Z,10.88
2022-10-08T08:34:20.246Z,10.87
2022-10-08T08:36:49.532Z,10.90
2022-10-08T08:39:23.378Z,10.97
2022-10-08T08:42:33.573Z,10.96
2022-10-08T08:45:05.610Z,11.00
2022-10-08T08:47:49.717Z,10.97
2022-10-08T08:50:29.551Z,10.97
2022-10-08T08:52:57.314Z,11.02
2022-10-08T08:55:35.945Z,10.99
2022-10-08T08:58:40.340Z,10.97
2022-10-08T09:01:09.905Z,10.96
2022-10-08T09:03:52.784Z,10.98
2022-10-08T09:06:23.826Z,10.94
2022-10-08T09:08:57.336Z,10.92
2022-10-08T09:11:24.909Z,10.92
2022-10-08T09:14:31.329Z,10.86
2022-10-08T09:17:04.579Z,10.85
2022-10-08T09:19:32.160Z,10.86
2022-10-08T09:21:59.012Z,10.87
2022-10-08T09:24:26.165Z,10.88
2022-10-08T09:26:54.058Z,10.83
2022-10-08T09:29:39.016Z,10.85
2022-10-08T09:32:06.004Z,10.83
2022-10-08T09:34:33.668Z,10.84
2022-10-08T09:37:23.210Z,10.81
2022-10-08T09:40:11.649Z,10.84
2022-10-08T09:42:38.821Z,10.87
2022-10-08T09:45:30.492Z,10.89
2022-10-08T09:48:19.737Z,10.90
2022-10-08T09:50:55.406Z,10.95
2022-10-08T09:53:26.856Z,10.97
2022-10-08T09:56:03.592Z,11.00
2022-10-08T09:58:34.597Z,11.00
2022-10-08T10:01:15.569Z,11.05
2022-10-08T10:04:03.519Z,11.15
2022-10-08T10:06:35.493Z,11.14
2022-10-08T10:09:11.674Z,11.14
2022-10-08T10:11:48.027Z,11.17
2022-10-08T10:14:28.522Z,11.22
2022-10-08T10:17:03.214Z,11.27
2022-10-08T10:19:48.206Z,11.32
2022-10-08T10:22:27.572Z,11.31
2022-10-08T10:25:14.626Z,11.40
2022-10-08T10:28:09.120Z,11.42
2022-10-08T10:30:53.105Z,11.44
2022-10-08T10:33:34.361Z,11.49
2022-10-08T10:36:09.285Z,11.57
2022-10-08T10:38:43.343Z,11.62
2022-10-08T10:41:29.180Z,11.67
2022-10-08T10:44:04.785Z,11.73
2022-10-08T10:46:42.057Z,11.83
2022-10-08T10:49:17.930Z,11.86
2022-10-08T10:52:00.726Z,11.89
2022-10-08T10:54:52.113Z,11.95
2022-10-08T10:57:25.048Z,12.03
2022-10-08T11:00:09.526Z,12.12
2022-10-08T11:02:54.341Z,12.15
2022-10-08T11:05:28.123Z,12.24
2022-10-08T11:08:19.464Z,12.36
2022-10-08T11:11:17.950Z,12.44
2022-10-08T11:14:16.892Z,12.54
2022-10-08T11:16:51.852Z,12.69
2022-10-08T11:19:33.405Z,12.82
2022-10-08T11:22:04.434Z,12.94
2022-10-08T11:24:55.791Z,13.09
2022-10-08T11:27:29.463Z,13.16
2022-10-08T11:30:15.801Z,13.24
2022-10-08T11:32:50.563Z,13.35
2022-10-08T11:35:40.798Z,13.43
2022-10-08T11:38:26.852Z,13.50
2022-10-08T11:41:16.264Z,13.42
2022-10-08T11:43:55.985Z,13.41
2022-10-08T11:46:36.715Z,13.38
2022-10-08T11:49:15.824Z,13.38
2022-10-08T11:51:53.984Z,13.41
2022-10-08T11:54:38.910Z,13.44
2022-10-08T11:57:24.994Z,13.50
2022-10-08T12:00:33.209Z,13.51
2022-10-08T12:03:01.270Z,13.53
2022-10-08T12:05:51.037Z,13.53
2022-10-08T12:08:56.574Z,13.58
2022-10-08T12:11:32.457Z,13.60
2022-10-08T12:14:11.510Z,13.68
2022-10-08T12:16:47.626Z,13.77
2022-10-08T12:19:33.238Z,13.82
2022-10-08T12:22:25.352Z,13.86
2022-10-08T12:24:58.092Z,13.84
2022-10-08T12:27:32.065Z,13.75
2022-10-08T12:30:14.481Z,13.73
2022-10-08T12:32:44.389Z,13.74
2022-10-08T12:35:24.193Z,13.78
2022-10-08T12:38:14.832Z,13.81
2022-10-08T12:40:50.829Z,13.86
2022-10-08T12:43:40.838Z,13.94
2022-10-08T12:46:50.477Z,13.97
2022-10-08T12:49:36.006Z,14.08
2022-10-08T12:52:11.001Z,14.12
2022-10-08T12:54:52.305Z,14.26
2022-10-08T12:57:39.235Z,14.23
2022-10-08T13:00:35.764Z,14.35
2022-10-08T13:03:16.629Z,14.39
2022-10-08T13:05:44.290Z,14.39
2022-10-08T13:08:32.280Z,14.41
2022-10-08T13:11:09.330Z,14.42
2022-10-08T13:13:45.118Z,14.44
2022-10-08T13:16:20.839Z,14.51
2022-10-08T13:19:01.562Z,14.61
2022-10-08T13:21:31.294Z,14.64
2022-10-08T13:23:59.696Z,14.65
2022-10-08T13:26:48.469Z,14.57
2022-10-08T13:29:24.325Z,14.59
2022-10-08T13:32:04.132Z,14.66
2022-10-08T13:34:52.156Z,14.74
2022-10-08T13:37:22.573Z,14.78
2022-10-08T13:39:56.262Z,14.86
2022-10-08T13:42:31.003Z,14.88
2022-10-08T13:45:00.143Z,14.89
2022-10-08T13:47:29.143Z,14.83
2022-10-08T13:50:02.411Z,14.78
2022-10-08T13:52:33.162Z,14.75
2022-10-08T13:55:07.937Z,14.73
2022-10-08T13:57:34.767Z,14.72
2022-10-08T14:00:01.541Z,14.65
2022-10-08T14:02:28.365Z,14.73
2022-10-08T14:04:55.129Z,14.80
2022-10-08T14:07:32.040Z,14.81
2022-10-08T14:10:01.198Z,14.85
2022-10-08T14:12:33.208Z,14.80
2022-10-08T14:15:01.437Z,14.75
2022-10-08T14:17:28.195Z,14.76
2022-10-08T14:19:55.687Z,14.69
2022-10-08T14:22:23.339Z,14.63
2022-10-08T14:24:50.774Z,14.58
2022-10-08T14:27:17.785Z,14.52
2022-10-08T14:29:44.551Z,14.48
2022-10-08T14:32:12.246Z,14.51
2022-10-08T14:34:39.477Z,14.59
2022-10-08T14:37:06.998Z,14.61
2022-10-08T14:39:33.915Z,14.72
2022-10-08T14:42:00.697Z,14.77
2022-10-08T14:44:27.850Z,14.87
2022-10-08T14:46:54.685Z,14.90
2022-10-08T14:49:22.489Z,14.88
2022-10-08T14:51:49.285Z,14.88
2022-10-08T14:54:16.358Z,14.77
2022-10-08T14:56:43.719Z,14.81
2022-10-08T14:59:11.888Z,14.75
2022-10-08T15:01:39.656Z,14.72
2022-10-08T15:04:07.423Z,14.67
2022-10-08T15:06:34.840Z,14.59
2022-10-08T15:09:01.688Z,14.51
2022-10-08T15:11:28.599Z,14.48
2022-10-08T15:13:55.715Z,14.45
2022-10-08T15:16:22.882Z,14.43
2022-10-08T15:18:49.992Z,14.41
2022-10-08T15:21:17.201Z,14.36
2022-10-08T15:23:44.000Z,14.32
2022-10-08T15:26:17.892Z,14.29
2022-10-08T15:28:46.456Z,14.26
2022-10-08T15:31:16.171Z,14.23
2022-10-08T15:33:46.490Z,14.20
2022-10-08T15:36:25.759Z,14.18
2022-10-08T15:39:19.309Z,14.14
2022-10-08T15:41:52.769Z,14.09
2022-10-08T15:44:22.595Z,14.10
2022-10-08T15:46:59.577Z,14.05
2022-10-08T15:49:34.912Z,13.98
2022-10-08T15:52:03.770Z,13.95
2022-10-08T15:54:30.577Z,13.91
2022-10-08T15:56:57.549Z,13.86
2022-10-08T15:59:24.324Z,13.80
2022-10-08T16:01:51.140Z,13.77
2022-10-08T16:04:18.121Z,13.70
2022-10-08T16:06:45.641Z,13.67
2022-10-08T16:09:14.543Z,13.60
2022-10-08T16:11:42.813Z,13.60
2022-10-08T16:14:23.793Z,13.55
2022-10-08T16:16:52.086Z,13.51
2022-10-08T16:19:22.975Z,13.43
2022-10-08T16:21:54.494Z,13.37
2022-10-08T16:24:21.546Z,13.32
2022-10-08T16:26:50.203Z,13.26
2022-10-08T16:29:18.657Z,13.20
2022-10-08T16:31:46.698Z,13.14
2022-10-08T16:34:20.041Z,13.05
2022-10-08T16:36:48.504Z,12.98
2022-10-08T16:39:18.507Z,12.90
2022-10-08T16:41:46.398Z,12.84
2022-10-08T16:44:16.430Z,12.77
2022-10-08T16:46:48.770Z,12.68
2022-10-08T16:49:24.315Z,12.63
2022-10-08T16:51:55.380Z,12.56
2022-10-08T16:54:22.420Z,12.49
2022-10-08T16:56:49.203Z,12.40
2022-10-08T16:59:20.960Z,12.32
2022-10-08T17:01:51.962Z,12.23
2022-10-08T17:04:21.323Z,12.13
2022-10-08T17:06:48.959Z,12.02
2022-10-08T17:09:15.906Z,11.93
2022-10-08T17:11:42.987Z,11.83
2022-10-08T17:14:11.902Z,11.78
2022-10-08T17:16:39.855Z,11.68
2022-10-08T17:19:06.694Z,11.59
2022-10-08T17:21:35.213Z,11.53
2022-10-08T17:24:03.117Z,11.44
2022-10-08T17:26:31.646Z,11.37
2022-10-08T17:29:06.984Z,11.24
2022-10-08T17:31:34.798Z,11.20
2022-10-08T17:34:03.159Z,11.12
2022-10-08T17:36:34.805Z,11.06
2022-10-08T17:39:04.341Z,11.01
2022-10-08T17:41:39.964Z,10.92
2022-10-08T17:44:09.255Z,10.86
2022-10-08T17:46:47.034Z,10.78
2022-10-08T17:49:17.180Z,10.70
2022-10-08T17:51:44.990Z,10.66
2022-10-08T17:54:15.257Z,10.60
2022-10-08T17:56:42.488Z,10.53
2022-10-08T17:59:09.464Z,10.49
2022-10-08T18:01:40.237Z,10.41
2022-10-08T18:04:14.489Z,10.34
2022-10-08T18:06:43.343Z,10.29
2022-10-08T18:09:19.002Z,10.21
2022-10-08T18:11:51.053Z,10.19
2022-10-08T18:14:18.380Z,10.10
2022-10-08T18:16:48.147Z,10.05
2022-10-08T18:19:16.368Z,10.01
2022-10-08T18:21:43.197Z,9.96
2022-10-08T18:24:11.209Z,9.93
2022-10-08T18:26:38.124Z,9.87
2022-10-08T18:29:10.215Z,9.81
2022-10-08T18:31:40.367Z,9.78
2022-10-08T18:34:13.551Z,9.72
2022-10-08T18:36:43.231Z,9.67
2022-10-08T18:39:19.171Z,9.63
2022-10-08T18:41:49.299Z,9.59
2022-10-08T18:44:21.610Z,9.53
2022-10-08T18:46:48.995Z,9.49
2022-10-08T18:49:19.138Z,9.45
2022-10-08T18:51:49.166Z,9.40
2022-10-08T18:54:16.126Z,9.36
2022-10-08T18:56:43.039Z,9.31
2022-10-08T18:59:15.210Z,9.24
2022-10-08T19:01:46.340Z,9.21
2022-10-08T19:04:17.830Z,9.16
2022-10-08T19:06:46.192Z,9.15
2022-10-08T19:09:13.948Z,9.07
2022-10-08T19:11:47.836Z,9.04
2022-10-08T19:14:18.689Z,9.01
2022-10-08T19:16:46.460Z,8.98
2022-10-08T19:19:17.893Z,8.94
2022-10-08T19:21:45.634Z,8.87
2022-10-08T19:24:19.393Z,8.85
2022-10-08T19:26:48.356Z,8.78
2022-10-08T19:29:19.992Z,8.75
2022-10-08T19:31:47.978Z,8.71
2022-10-08T19:34:21.188Z,8.68
2022-10-08T19:36:48.419Z,8.65
2022-10-08T19:39:22.276Z,8.60
2022-10-08T19:41:50.188Z,8.55
2022-10-08T19:44:17.837Z,8.52
2022-10-08T19:46:45.734Z,8.47
2022-10-08T19:49:12.831Z,8.44
2022-10-08T19:51:40.827Z,8.40
2022-10-08T19:54:08.313Z,8.35
2022-10-08T19:56:36.132Z,8.36
2022-10-08T19:59:03.734Z,8.32
2022-10-08T20:01:34.648Z,8.27
2022-10-08T20:04:04.180Z,8.24
2022-10-08T20:06:33.797Z,8.20
2022-10-08T20:09:02.705Z,8.17
2022-10-08T20:11:31.469Z,8.14
2022-10-08T20:13:59.820Z,8.10
2022-10-08T20:16:37.588Z,8.03
2022-10-08T20:19:23.530Z,8.01
2022-10-08T20:21:51.832Z,7.97
2022-10-08T20:24:19.781Z,7.92
2022-10-08T20:26:48.445Z,7.94
2022-10-08T20:29:19.837Z,7.90
2022-10-08T20:31:55.184Z,7.84
2022-10-08T20:34:27.180Z,7.80
2022-10-08T20:36:54.716Z,7.79
2022-10-08T20:39:23.063Z,7.75
2022-10-08T20:41:51.816Z,7.71
2022-10-08T20:44:19.027Z,7.69
2022-10-08T20:46:46.690Z,7.66
2022-10-08T20:49:14.242Z,7.64
2022-10-08T20:51:42.980Z,7.65
2022-10-08T20:54:14.594Z,7.59
2022-10-08T20:56:42.795Z,7.58
2022-10-08T20:59:15.464Z,7.55
2022-10-08T21:01:43.667Z,7.55
2022-10-08T21:04:10.768Z,7.50
2022-10-08T21:06:59.570Z,7.47
2022-10-08T21:09:26.556Z,7.46
2022-10-08T21:11:54.398Z,7.41
2022-10-08T21:14:22.870Z,7.40
2022-10-08T21:16:50.424Z,7.38
2022-10-08T21:19:22.235Z,7.34
2022-10-08T21:21:49.432Z,7.34
2022-10-08T21:24:16.333Z,7.30
2022-10-08T21:26:43.497Z,7.32
2022-10-08T21:29:13.386Z,7.26
2022-10-08T21:31:42.019Z,7.20
2022-10-08T21:34:12.458Z,7.19
2022-10-08T21:36:41.275Z,7.18
2022-10-08T21:39:14.163Z,7.15
2022-10-08T21:41:40.992Z,7.14
2022-10-08T21:44:08.801Z,7.14
2022-10-08T21:46:40.145Z,7.11
2022-10-08T21:49:15.037Z,7.08
2022-10-08T21:51:42.946Z,7.08
2022-10-08T21:54:11.367Z,7.05
2022-10-08T21:56:40.850Z,7.05
2022-10-08T21:59:12.649Z,6.99
2022-10-08T22:01:45.223Z,6.96
2022-10-08T22:04:22.453Z,6.88
2022-10-08T22:06:53.103Z,6.90
2022-10-08T22:09:26.695Z,6.86
2022-10-08T22:11:55.146Z,6.88
2022-10-08T22:14:23.321Z,6.84
2022-10-08T22:16:50.877Z,6.80
2022-10-08T22:19:18.315Z,6.75
2022-10-08T22:21:45.992Z,6.72
2022-10-08T22:24:14.081Z,6.71
2022-10-08T22:26:44.809Z,6.70
2022-10-08T22:29:12.590Z,6.68
2022-10-08T22:31:40.014Z,6.67
2022-10-08T22:34:06.976Z,6.66
2022-10-08T22:36:44.136Z,6.63
2022-10-08T22:39:11.929Z,6.59
2022-10-08T22:41:38.855Z,6.57
2022-10-08T22:44:05.847Z,6.52
2022-10-08T22:46:38.918Z,6.50
2022-10-08T22:49:09.345Z,6.49
2022-10-08T22:51:37.632Z,6.45
2022-10-08T22:54:05.425Z,6.42
2022-10-08T22:56:32.501Z,6.39
2022-10-08T22:59:00.729Z,6.37
2022-10-08T23:01:29.880Z,6.35
2022-10-08T23:03:57.485Z,6.33
2022-10-08T23:06:31.949Z,6.31
2022-10-08T23:09:02.484Z,6.30
2022-10-08T23:11:31.913Z,6.28
2022-10-08T23:14:00.495Z,6.23
2022-10-08T23:16:29.378Z,6.21
2022-10-08T23:19:03.336Z,6.16
2022-10-08T23:21:30.730Z,6.17
2022-10-08T23:23:58.392Z,6.11
2022-10-08T23:26:26.943Z,6.11
2022-10-08T23:28:56.652Z,6.07
2022-10-08T23:31:27.792Z,6.04
2022-10-08T23:33:55.777Z,6.02
2022-10-08T23:36:26.983Z,6.02
2022-10-08T23:38:54.020Z,6.00
2022-10-08T23:41:21.019Z,5.94
2022-10-08T23:43:50.549Z,5.90
2022-10-08T23:46:21.345Z,5.86
2022-10-08T23:48:49.711Z,5.87
2022-10-08T23:51:18.138Z,5.83
2022-10-08T23:53:46.017Z,5.82
2022-10-08T23:56:14.283Z,5.79
2022-10-08T23:58:42.020Z,5.77
